Time;durP1;ratioP1;P1;durP2;ratioP2;P2;SDS_P1;SDS_P2;PMS_P1;PMS_P2;Temp;Humidity;BMP_temperature;BMP_pressure;BME280_temperature;BME280_humidity;BME280_pressure;Samples;Min_cycle;Max_cycle;Signal;HPM_P1;HPM_P2
2022/06/30 00:02:09;;;;;;;7.47;2.47;;;14.70;99.90;;;;;;5052155;28;20056;-61
2022/06/30 00:04:37;;;;;;;10.90;2.10;;;14.80;99.90;;;;;;5051816;28;20117;-62
2022/06/30 00:07:04;;;;;;;5.50;1.98;;;15.10;99.90;;;;;;5052325;28;20028;-64
2022/06/30 00:09:31;;;;;;;4.75;1.90;;;15.30;99.90;;;;;;5051896;28;20426;-64
2022/06/30 00:11:58;;;;;;;8.00;2.38;;;15.40;99.90;;;;;;5051516;28;20112;-64
2022/06/30 00:14:25;;;;;;;5.82;3.80;;;15.30;99.90;;;;;;5052600;28;20013;-62
2022/06/30 00:16:52;;;;;;;5.07;2.60;;;15.20;99.90;;;;;;5052626;28;20471;-62
2022/06/30 00:19:19;;;;;;;4.70;2.97;;;15.10;99.90;;;;;;5051619;28;20039;-62
2022/06/30 00:21:46;;;;;;;6.13;2.40;;;15.10;99.90;;;;;;5051450;28;20367;-64
2022/06/30 00:24:13;;;;;;;6.18;2.58;;;15.10;99.90;;;;;;5051744;28;20052;-62
2022/06/30 00:26:40;;;;;;;4.97;2.80;;;15.20;99.90;;;;;;5051918;28;20029;-62
2022/06/30 00:29:08;;;;;;;5.75;3.00;;;15.60;99.90;;;;;;5051428;28;20082;-62
2022/06/30 00:31:36;;;;;;;5.18;2.08;;;16.00;99.90;;;;;;5052063;28;20032;-65
2022/06/30 00:34:03;;;;;;;5.38;2.50;;;16.00;99.90;;;;;;5050887;28;20077;-62
2022/06/30 00:36:30;;;;;;;4.55;2.15;;;16.10;99.90;;;;;;5051160;28;20025;-67
2022/06/30 00:38:57;;;;;;;4.78;2.63;;;16.00;99.90;;;;;;5047876;28;20029;-64
2022/06/30 00:41:24;;;;;;;5.75;2.10;;;16.20;99.90;;;;;;5049312;28;20029;-69
2022/06/30 00:43:51;;;;;;;3.05;2.15;;;16.20;99.90;;;;;;5047712;28;20383;-66
2022/06/30 00:46:19;;;;;;;7.05;2.20;;;16.30;99.90;;;;;;5062249;28;20252;-63
2022/06/30 00:48:46;;;;;;;4.47;2.25;;;16.50;99.90;;;;;;5063929;28;20115;-62
2022/06/30 00:51:13;;;;;;;3.03;2.03;;;16.50;99.90;;;;;;5056082;28;20076;-66
2022/06/30 00:53:41;;;;;;;5.55;2.35;;;16.70;99.90;;;;;;5059015;28;20471;-65
2022/06/30 00:56:10;;;;;;;7.53;2.75;;;16.90;99.90;;;;;;5060958;28;20108;-67
2022/06/30 00:58:40;;;;;;;4.35;1.95;;;17.30;99.90;;;;;;5062319;28;20027;-66
2022/06/30 01:01:13;;;;;;;3.50;1.73;;;17.90;99.90;;;;;;5045707;28;20430;-64
2022/06/30 01:03:40;;;;;;;2.35;1.52;;;18.00;99.90;;;;;;5064269;28;20356;-65
2022/06/30 01:06:07;;;;;;;4.82;1.77;;;18.00;99.80;;;;;;5062312;28;20090;-67
2022/06/30 01:08:35;;;;;;;3.00;1.63;;;17.90;99.50;;;;;;5062117;28;20108;-63
2022/06/30 01:13:49;;;;;;;2.67;1.60;;;18.00;99.80;;;;;;5064233;28;20028;-65
2022/06/30 01:16:19;;;;;;;3.42;1.45;;;18.10;98.90;;;;;;5061841;28;20029;-62
2022/06/30 01:18:46;;;;;;;3.13;1.35;;;18.20;99.70;;;;;;5062263;28;20046;-65
2022/06/30 01:21:14;;;;;;;5.47;1.40;;;18.20;98.40;;;;;;5062443;28;20032;-66
2022/06/30 01:23:41;;;;;;;3.22;1.50;;;18.10;97.00;;;;;;5055269;28;20135;-63
2022/06/30 01:26:08;;;;;;;8.90;1.77;;;18.00;96.80;;;;;;5041516;28;20394;-65
2022/06/30 01:28:35;;;;;;;2.70;1.17;;;17.90;98.00;;;;;;5052817;28;20029;-65
2022/06/30 01:31:03;;;;;;;9.35;1.40;;;17.90;98.30;;;;;;5057674;28;20040;-68
2022/06/30 01:33:30;;;;;;;6.63;1.85;;;17.90;96.30;;;;;;5060433;28;20146;-63
2022/06/30 01:35:57;;;;;;;1.60;0.73;;;17.80;91.70;;;;;;5059373;28;20348;-65
2022/06/30 01:38:25;;;;;;;5.32;0.80;;;17.90;91.20;;;;;;5060402;28;20664;-62
2022/06/30 01:40:52;;;;;;;2.33;0.82;;;17.80;90.30;;;;;;5058525;28;20029;-63
2022/06/30 01:43:19;;;;;;;1.95;0.70;;;18.00;90.00;;;;;;5058523;28;20471;-66
2022/06/30 01:45:46;;;;;;;2.75;1.10;;;18.10;88.20;;;;;;5056489;28;20027;-64
2022/06/30 01:48:14;;;;;;;1.92;0.60;;;17.90;89.30;;;;;;5056039;28;20025;-64
2022/06/30 01:50:41;;;;;;;3.20;0.68;;;17.90;87.40;;;;;;5058232;28;20299;-64
2022/06/30 01:53:08;;;;;;;2.38;0.80;;;17.80;85.40;;;;;;5038195;28;20032;-65
2022/06/30 01:55:35;;;;;;;3.88;0.77;;;17.70;86.20;;;;;;5058973;28;20073;-67
2022/06/30 01:58:02;;;;;;;3.58;0.70;;;17.70;87.10;;;;;;5058716;28;20688;-63
2022/06/30 02:00:31;;;;;;;2.28;0.55;;;17.70;86.00;;;;;;5058667;28;20490;-65
2022/06/30 02:02:58;;;;;;;3.55;0.60;;;17.80;86.10;;;;;;5040240;28;20052;-67
2022/06/30 02:05:26;;;;;;;2.83;0.93;;;17.90;85.20;;;;;;5055875;28;20028;-63
2022/06/30 02:07:54;;;;;;;3.50;1.00;;;18.00;85.50;;;;;;5058847;28;20024;-70
2022/06/30 02:10:23;;;;;;;4.32;0.80;;;18.10;84.00;;;;;;4361250;28;10000709;-67
2022/06/30 02:12:51;;;;;;;3.15;0.90;;;18.40;83.00;;;;;;5058556;28;20009;-70
2022/06/30 02:15:34;;;;;;;5.25;0.63;;;18.40;85.00;;;;;;5055015;28;20147;-70
2022/06/30 02:18:03;;;;;;;3.45;0.75;;;18.30;84.30;;;;;;5044075;28;20047;-66
2022/06/30 02:20:31;;;;;;;3.80;0.90;;;18.30;85.60;;;;;;5059538;28;20190;-64
2022/06/30 02:23:01;;;;;;;3.53;0.77;;;18.50;83.60;;;;;;5061189;28;20052;-69
2022/06/30 02:25:31;;;;;;;2.10;0.65;;;18.70;83.00;;;;;;5059598;28;20013;-67
2022/06/30 02:27:58;;;;;;;2.90;0.73;;;19.10;82.30;;;;;;5061224;28;20024;-66
2022/06/30 02:30:26;;;;;;;2.15;0.88;;;19.40;81.50;;;;;;5058057;28;20119;-65
2022/06/30 02:32:53;;;;;;;3.90;0.60;;;19.60;80.70;;;;;;5057617;28;20029;-69
2022/06/30 02:35:20;;;;;;;3.15;0.70;;;19.60;79.70;;;;;;5062139;28;20013;-65
2022/06/30 02:37:47;;;;;;;4.45;0.75;;;19.30;84.20;;;;;;5060145;28;20135;-62
2022/06/30 02:40:15;;;;;;;1.02;0.47;;;19.30;83.20;;;;;;5049279;28;20399;-67
2022/06/30 02:42:43;;;;;;;0.45;0.45;;;19.30;82.00;;;;;;5053581;28;20115;-65
2022/06/30 02:45:10;;;;;;;1.00;0.73;;;19.10;82.40;;;;;;5034953;28;20036;-65
2022/06/30 02:47:40;;;;;;;1.05;0.70;;;19.10;81.20;;;;;;5053291;28;20455;-65
2022/06/30 02:50:10;;;;;;;3.33;0.63;;;19.10;84.00;;;;;;5026801;28;20024;-64
2022/06/30 02:52:37;;;;;;;1.45;0.55;;;19.20;83.00;;;;;;5052054;28;20024;-66
2022/06/30 02:55:06;;;;;;;2.17;0.88;;;19.10;83.50;;;;;;5055407;28;20051;-66
2022/06/30 02:57:35;;;;;;;0.93;0.60;;;19.00;85.20;;;;;;5056270;28;20490;-66
2022/06/30 03:00:04;;;;;;;1.00;0.65;;;18.80;86.20;;;;;;5051670;28;20112;-66
2022/06/30 03:02:31;;;;;;;3.05;0.85;;;18.80;86.50;;;;;;5058647;28;20036;-66
2022/06/30 03:04:58;;;;;;;1.65;0.90;;;19.00;85.60;;;;;;5059090;28;20029;-71
2022/06/30 03:07:26;;;;;;;2.03;0.80;;;19.10;84.20;;;;;;5054633;28;20326;-68
2022/06/30 03:09:53;;;;;;;4.03;1.02;;;19.10;83.70;;;;;;5057937;28;20068;-65
2022/06/30 03:12:20;;;;;;;1.20;0.90;;;19.10;84.90;;;;;;5059875;28;20110;-71
2022/06/30 03:14:47;;;;;;;3.67;1.23;;;19.10;86.00;;;;;;5056999;28;20083;-70
2022/06/30 03:17:15;;;;;;;1.48;1.05;;;19.10;84.80;;;;;;5057457;28;20369;-70
2022/06/30 03:19:42;;;;;;;2.75;1.10;;;18.90;85.20;;;;;;5058730;28;20035;-68
2022/06/30 03:22:09;;;;;;;3.47;1.10;;;18.80;86.80;;;;;;5057440;28;20028;-71
2022/06/30 03:24:36;;;;;;;4.97;1.00;;;18.70;86.40;;;;;;5054351;28;20028;-64
2022/06/30 03:27:04;;;;;;;1.40;1.00;;;18.70;86.10;;;;;;5036084;28;20028;-62
2022/06/30 03:29:32;;;;;;;1.90;0.70;;;18.80;86.90;;;;;;5053609;28;20031;-66
2022/06/30 03:31:59;;;;;;;6.45;1.30;;;18.90;87.90;;;;;;5055855;28;20434;-65
2022/06/30 03:34:26;;;;;;;1.63;0.88;;;18.90;88.50;;;;;;5060493;28;20024;-67
2022/06/30 03:36:53;;;;;;;1.80;0.80;;;18.90;86.00;;;;;;5062090;28;20087;-66
2022/06/30 03:39:41;;;;;;;2.70;1.10;;;18.90;86.90;;;;;;5061779;28;20495;-67
2022/06/30 03:42:08;;;;;;;5.35;1.20;;;18.70;86.40;;;;;;5062609;28;20098;-65
2022/06/30 03:44:35;;;;;;;1.42;0.95;;;18.60;90.10;;;;;;5061956;28;20023;-65
2022/06/30 03:47:03;;;;;;;3.03;1.20;;;18.60;90.10;;;;;;5062820;28;20024;-67
2022/06/30 03:49:30;;;;;;;2.40;1.33;;;18.60;90.30;;;;;;5061835;28;20130;-67
2022/06/30 03:51:57;;;;;;;3.05;1.15;;;18.40;87.80;;;;;;5058979;28;20070;-66
2022/06/30 03:54:24;;;;;;;2.00;0.80;;;18.30;88.60;;;;;;5063040;28;20085;-65
2022/06/30 03:56:51;;;;;;;3.80;1.05;;;18.10;86.50;;;;;;5059713;28;20032;-67
2022/06/30 03:59:19;;;;;;;2.53;1.10;;;18.20;87.80;;;;;;5060963;28;20097;-67
2022/06/30 04:01:46;;;;;;;2.25;0.70;;;18.30;89.20;;;;;;5049081;28;20021;-66
2022/06/30 04:04:13;;;;;;;1.08;0.70;;;18.30;88.10;;;;;;5043433;28;20599;-69
2022/06/30 04:06:40;;;;;;;1.95;0.73;;;18.30;82.90;;;;;;5045504;28;20033;-65
2022/06/30 04:09:08;;;;;;;1.80;0.70;;;18.30;82.00;;;;;;5052636;28;20035;-68
2022/06/30 04:11:36;;;;;;;1.38;0.80;;;18.10;84.40;;;;;;5058641;28;20063;-65
2022/06/30 04:14:03;;;;;;;1.98;0.80;;;18.10;82.70;;;;;;5055645;28;21197;-69
2022/06/30 04:16:30;;;;;;;2.40;0.90;;;18.10;85.40;;;;;;5060960;28;20095;-69
2022/06/30 04:18:57;;;;;;;2.33;1.00;;;18.10;85.70;;;;;;5059539;28;20059;-67
2022/06/30 04:21:24;;;;;;;1.92;1.10;;;18.10;85.00;;;;;;5058492;28;20047;-68
2022/06/30 04:23:51;;;;;;;1.35;0.90;;;18.10;84.50;;;;;;5059792;28;20033;-66
2022/06/30 04:26:18;;;;;;;3.15;1.10;;;18.00;84.60;;;;;;5059444;28;20037;-65
2022/06/30 04:28:46;;;;;;;3.17;1.98;;;17.90;85.80;;;;;;5058739;28;20031;-69
2022/06/30 04:33:58;;;;;;;5.93;1.35;;;17.70;85.70;;;;;;5059597;28;20150;-68
2022/06/30 04:36:25;;;;;;;2.70;1.02;;;17.80;86.00;;;;;;5059286;28;20568;-65
2022/06/30 04:38:52;;;;;;;2.72;1.80;;;17.80;88.20;;;;;;5041128;28;20079;-68
2022/06/30 04:41:25;;;;;;;2.70;1.40;;;17.80;87.70;;;;;;5048357;28;20551;-65
2022/06/30 04:43:57;;;;;;;2.60;1.30;;;17.90;86.70;;;;;;5043551;28;20394;-64
2022/06/30 04:46:25;;;;;;;3.97;1.50;;;17.90;88.50;;;;;;5048119;28;20029;-66
2022/06/30 04:48:54;;;;;;;5.72;1.10;;;17.80;88.20;;;;;;5047462;28;20323;-66
2022/06/30 04:51:21;;;;;;;9.02;1.33;;;17.80;87.70;;;;;;5048519;28;20017;-67
2022/06/30 04:53:49;;;;;;;3.83;1.40;;;17.80;89.50;;;;;;5047522;28;20029;-66
2022/06/30 04:56:17;;;;;;;2.75;0.90;;;17.90;90.70;;;;;;5047380;28;20117;-63
2022/06/30 04:58:45;;;;;;;2.00;0.77;;;18.10;86.90;;;;;;5043666;28;20430;-65
2022/06/30 05:01:12;;;;;;;3.10;0.80;;;18.10;87.20;;;;;;5040608;28;20112;-63
2022/06/30 05:03:40;;;;;;;2.83;1.73;;;18.10;87.70;;;;;;5048745;28;20079;-67
2022/06/30 05:06:08;;;;;;;2.15;1.05;;;18.10;88.80;;;;;;5047777;28;20029;-66
2022/06/30 05:08:35;;;;;;;2.47;1.30;;;18.00;89.40;;;;;;5046753;28;20025;-66
2022/06/30 05:11:02;;;;;;;5.43;1.30;;;18.00;89.30;;;;;;5045110;28;20100;-69
2022/06/30 05:13:29;;;;;;;2.85;1.15;;;18.00;89.60;;;;;;5049144;28;20125;-64
2022/06/30 05:15:57;;;;;;;4.07;0.93;;;17.90;90.00;;;;;;5045880;28;20108;-69
2022/06/30 05:18:26;;;;;;;3.95;1.00;;;17.80;90.30;;;;;;5045853;28;20040;-69
2022/06/30 05:20:54;;;;;;;4.95;1.33;;;17.70;90.00;;;;;;5047707;28;20033;-70
2022/06/30 05:23:21;;;;;;;1.42;1.00;;;17.70;90.40;;;;;;5045889;28;20029;-70
2022/06/30 05:28:34;;;;;;;3.55;0.90;;;17.70;90.20;;;;;;5043913;28;20082;-64
2022/06/30 05:31:01;;;;;;;3.45;1.23;;;17.60;89.00;;;;;;5054029;23;20559;-69
2022/06/30 05:33:29;;;;;;;2.00;0.98;;;17.50;89.80;;;;;;5046797;28;20025;-68
2022/06/30 05:35:58;;;;;;;5.78;1.08;;;17.40;90.70;;;;;;5048247;28;20128;-69
2022/06/30 05:38:25;;;;;;;2.13;1.00;;;17.30;90.50;;;;;;5045460;28;20021;-68
2022/06/30 05:40:52;;;;;;;5.13;1.08;;;17.20;91.30;;;;;;5046669;28;20120;-66
2022/06/30 05:43:19;;;;;;;1.52;1.10;;;17.30;90.90;;;;;;5047278;28;20542;-69
2022/06/30 05:45:48;;;;;;;3.35;1.15;;;17.30;91.50;;;;;;5044621;28;20545;-67
2022/06/30 05:48:15;;;;;;;4.13;1.73;;;17.20;91.60;;;;;;5046161;28;20060;-70
2022/06/30 05:50:42;;;;;;;2.72;1.23;;;17.20;92.70;;;;;;5046717;28;20063;-70
2022/06/30 05:53:09;;;;;;;2.50;1.20;;;17.20;92.00;;;;;;5046305;28;20048;-67
2022/06/30 05:55:36;;;;;;;3.75;1.27;;;17.20;91.80;;;;;;5047826;28;20023;-69
2022/06/30 05:58:06;;;;;;;1.80;0.82;;;17.10;92.30;;;;;;5041018;28;20025;-66
2022/06/30 06:00:34;;;;;;;2.50;0.80;;;17.00;89.00;;;;;;5044254;28;20109;-65
2022/06/30 06:03:02;;;;;;;2.95;0.95;;;16.80;87.10;;;;;;5057848;28;20021;-67
2022/06/30 06:05:29;;;;;;;0.85;0.57;;;16.60;88.80;;;;;;5059151;28;20102;-67
2022/06/30 06:08:03;;;;;;;2.22;0.70;;;16.50;87.90;;;;;;5057654;28;20155;-67
2022/06/30 06:10:30;;;;;;;1.33;1.00;;;16.40;86.30;;;;;;5055969;28;20021;-64
2022/06/30 06:12:57;;;;;;;2.45;0.90;;;16.30;85.30;;;;;;5054179;28;20375;-66
2022/06/30 06:15:24;;;;;;;5.70;1.10;;;16.20;87.60;;;;;;5058688;28;20107;-69
2022/06/30 06:17:51;;;;;;;1.83;1.20;;;16.20;90.40;;;;;;5055409;28;20036;-69
2022/06/30 06:20:19;;;;;;;1.85;0.90;;;16.10;87.30;;;;;;5053936;28;20029;-66
2022/06/30 06:22:50;;;;;;;4.82;0.90;;;16.00;87.50;;;;;;5053515;28;20049;-65
2022/06/30 06:25:18;;;;;;;2.78;1.00;;;15.90;89.80;;;;;;5054169;28;20118;-67
2022/06/30 06:29:05;;;;;;;2.42;0.70;;;15.80;89.40;;;;;;5050020;28;20550;-68
2022/06/30 06:30:35;;;;;;;5.78;3.17;;;15.60;90.50;;;;;;5054659;28;20048;-66
2022/06/30 06:33:03;;;;;;;7.30;2.70;;;15.50;90.00;;;;;;5052877;28;20088;-70
2022/06/30 06:35:30;;;;;;;4.13;1.35;;;15.50;89.20;;;;;;5048727;28;20043;-69
2022/06/30 06:37:57;;;;;;;4.90;1.80;;;15.40;89.80;;;;;;5047380;28;20123;-65
2022/06/30 06:40:24;;;;;;;3.83;1.42;;;15.30;91.30;;;;;;5057228;28;20221;-66
2022/06/30 06:42:51;;;;;;;3.97;1.73;;;15.20;90.00;;;;;;5045496;28;20037;-69
2022/06/30 06:45:18;;;;;;;6.43;3.13;;;15.10;90.10;;;;;;5053467;28;20047;-65
2022/06/30 06:47:46;;;;;;;5.88;2.17;;;15.00;90.10;;;;;;5048403;28;20025;-69
2022/06/30 06:50:14;;;;;;;3.70;2.17;;;14.90;90.40;;;;;;5059842;28;20534;-66
2022/06/30 06:52:41;;;;;;;3.13;1.10;;;14.70;90.20;;;;;;5041211;28;20021;-69
2022/06/30 06:55:09;;;;;;;3.35;1.58;;;14.70;90.10;;;;;;5038011;28;20488;-69
2022/06/30 06:57:38;;;;;;;3.50;1.90;;;14.70;90.20;;;;;;5048655;28;20035;-65
2022/06/30 07:00:12;;;;;;;2.13;1.45;;;14.60;89.80;;;;;;5055107;28;20873;-65
2022/06/30 07:02:43;;;;;;;3.38;1.20;;;14.50;90.60;;;;;;5054961;28;20454;-69
2022/06/30 07:05:11;;;;;;;4.20;1.60;;;14.40;90.20;;;;;;5033020;28;20075;-64
2022/06/30 07:07:38;;;;;;;1.83;1.13;;;14.30;90.60;;;;;;5052442;28;20342;-64
2022/06/30 07:10:08;;;;;;;4.07;1.08;;;14.30;91.10;;;;;;5047712;28;20115;-64
2022/06/30 07:12:35;;;;;;;3.08;1.42;;;14.20;92.00;;;;;;5050094;28;20762;-65
2022/06/30 07:15:03;;;;;;;3.58;1.60;;;14.40;95.10;;;;;;5049315;28;20029;-64
2022/06/30 07:17:36;;;;;;;4.63;2.33;;;14.30;95.20;;;;;;5047636;28;20036;-63
2022/06/30 07:20:03;;;;;;;5.03;3.08;;;14.30;96.00;;;;;;5051711;28;20312;-69
2022/06/30 07:22:30;;;;;;;6.03;2.90;;;14.20;96.20;;;;;;5054083;28;20036;-64
2022/06/30 07:24:57;;;;;;;15.18;9.77;;;14.00;95.80;;;;;;5033967;28;20236;-67
2022/06/30 07:27:24;;;;;;;15.55;11.30;;;13.90;96.00;;;;;;5052893;28;20032;-67
2022/06/30 07:29:51;;;;;;;23.10;15.60;;;13.80;94.90;;;;;;5056089;28;20072;-67
2022/06/30 07:32:19;;;;;;;6.57;3.22;;;13.60;94.80;;;;;;5054434;28;20079;-64
2022/06/30 07:34:46;;;;;;;4.28;2.70;;;13.60;94.30;;;;;;5054873;28;20063;-62
2022/06/30 07:37:13;;;;;;;3.90;3.28;;;13.50;94.20;;;;;;5054086;28;20037;-62
2022/06/30 07:39:40;;;;;;;2.50;1.80;;;13.40;94.20;;;;;;5052990;28;20046;-64
2022/06/30 07:42:07;;;;;;;7.32;4.63;;;13.30;94.20;;;;;;5052186;28;20480;-66
2022/06/30 07:44:34;;;;;;;4.25;2.97;;;13.20;94.60;;;;;;5053063;28;20043;-64
2022/06/30 07:47:02;;;;;;;6.05;1.92;;;13.20;94.80;;;;;;5054714;28;20154;-64
2022/06/30 07:49:29;;;;;;;3.28;1.40;;;13.20;94.50;;;;;;5054418;28;20024;-66
2022/06/30 07:51:56;;;;;;;4.65;1.50;;;13.30;94.30;;;;;;5052051;28;20385;-66
2022/06/30 07:54:23;;;;;;;2.88;1.38;;;13.20;94.50;;;;;;5056310;28;20095;-65
2022/06/30 07:56:50;;;;;;;2.70;1.40;;;13.20;94.80;;;;;;5058819;28;20494;-63
2022/06/30 07:59:17;;;;;;;5.70;2.20;;;13.20;95.20;;;;;;5058289;28;20036;-66
2022/06/30 08:01:44;;;;;;;4.32;1.73;;;13.20;95.40;;;;;;5057217;28;20507;-63
2022/06/30 08:04:11;;;;;;;2.10;1.60;;;13.10;95.80;;;;;;5056603;28;20039;-60
2022/06/30 08:06:39;;;;;;;5.72;2.38;;;13.10;95.50;;;;;;5058453;28;20116;-62
2022/06/30 08:09:06;;;;;;;3.65;1.77;;;13.10;95.90;;;;;;5058237;28;20115;-62
2022/06/30 08:11:33;;;;;;;3.63;1.80;;;13.10;95.50;;;;;;5057977;28;20525;-64
2022/06/30 08:14:00;;;;;;;3.40;2.10;;;13.20;95.70;;;;;;5058408;28;20078;-65
2022/06/30 08:16:28;;;;;;;5.05;2.08;;;13.10;95.60;;;;;;5056547;28;20033;-65
2022/06/30 08:18:55;;;;;;;4.25;1.52;;;13.20;95.50;;;;;;5056559;28;20052;-62
2022/06/30 08:21:22;;;;;;;3.15;2.00;;;13.10;96.30;;;;;;5058736;28;20125;-63
2022/06/30 08:23:49;;;;;;;4.22;1.70;;;13.10;96.30;;;;;;5058674;28;20027;-66
2022/06/30 08:26:16;;;;;;;3.00;1.98;;;13.00;96.50;;;;;;5058081;28;20020;-61
2022/06/30 08:28:43;;;;;;;6.40;3.50;;;12.90;96.60;;;;;;5056344;28;20036;-66
2022/06/30 08:31:11;;;;;;;4.68;1.92;;;12.90;96.90;;;;;;5054768;28;20530;-63
2022/06/30 08:33:38;;;;;;;5.47;1.60;;;12.90;97.50;;;;;;5053664;28;20729;-63
2022/06/30 08:36:06;;;;;;;5.05;1.75;;;13.00;96.70;;;;;;5055669;28;20525;-64
2022/06/30 08:38:33;;;;;;;8.90;3.80;;;12.90;96.90;;;;;;5056670;28;20646;-60
2022/06/30 08:43:46;;;;;;;5.57;2.30;;;12.90;97.20;;;;;;5055912;28;20094;-62
2022/06/30 08:46:15;;;;;;;4.18;1.75;;;12.90;97.40;;;;;;5056318;28;20032;-61
2022/06/30 08:48:42;;;;;;;3.78;1.83;;;12.90;97.60;;;;;;5052746;28;20447;-63
2022/06/30 08:51:13;;;;;;;4.22;1.45;;;12.90;97.70;;;;;;5053966;28;20039;-62
2022/06/30 08:53:52;;;;;;;4.88;1.40;;;12.80;98.10;;;;;;5052011;28;20036;-62
2022/06/30 08:56:20;;;;;;;4.82;1.75;;;12.60;98.40;;;;;;5055971;28;20454;-64
2022/06/30 08:58:50;;;;;;;4.15;1.88;;;12.60;98.80;;;;;;5055873;28;20131;-61
2022/06/30 09:01:18;;;;;;;2.85;1.50;;;12.50;99.00;;;;;;5057971;28;20119;-67
2022/06/30 09:03:45;;;;;;;4.32;1.65;;;12.50;99.50;;;;;;5051961;28;20029;-64
2022/06/30 09:06:13;;;;;;;4.10;1.70;;;12.40;99.90;;;;;;5054728;28;20029;-64
2022/06/30 09:08:40;;;;;;;3.92;2.30;;;12.40;99.90;;;;;;5053028;28;20502;-64
2022/06/30 09:11:08;;;;;;;3.55;1.90;;;12.40;99.90;;;;;;5055619;28;20024;-67
2022/06/30 09:13:48;;;;;;;3.45;1.80;;;12.40;99.90;;;;;;5057168;28;20028;-64
2022/06/30 09:16:17;;;;;;;3.00;1.90;;;12.50;99.90;;;;;;5056776;28;20466;-67
2022/06/30 09:18:45;;;;;;;4.60;1.52;;;12.50;99.90;;;;;;5055758;28;20029;-65
2022/06/30 09:21:20;;;;;;;2.92;1.30;;;12.60;99.90;;;;;;5046543;28;20559;-66
2022/06/30 09:23:48;;;;;;;2.38;1.55;;;12.60;99.90;;;;;;5052182;28;20037;-66
2022/06/30 09:26:21;;;;;;;6.75;2.47;;;12.60;99.90;;;;;;5049879;28;20032;-74
2022/06/30 09:28:54;;;;;;;5.95;2.33;;;12.50;99.90;;;;;;5052852;28;20189;-72
2022/06/30 09:31:35;;;;;;;4.25;2.38;;;12.50;99.90;;;;;;5054144;28;20047;-68
2022/06/30 09:34:18;;;;;;;4.75;2.50;;;12.50;99.90;;;;;;5056600;28;20203;-67
2022/06/30 09:36:53;;;;;;;5.88;2.60;;;12.50;99.90;;;;;;5040617;28;20094;-70
2022/06/30 09:39:23;;;;;;;7.75;2.33;;;12.50;99.90;;;;;;5053839;28;20039;-74
2022/06/30 09:41:51;;;;;;;6.93;2.58;;;12.50;99.80;;;;;;5055062;28;20027;-71
2022/06/30 09:44:20;;;;;;;6.55;2.83;;;12.60;99.40;;;;;;5053478;28;20016;-69
2022/06/30 09:47:10;;;;;;;6.80;2.95;;;12.50;99.90;;;;;;5052237;28;20028;-70
2022/06/30 09:49:46;;;;;;;4.50;2.63;;;12.40;99.90;;;;;;5056063;28;20107;-67
2022/06/30 09:52:21;;;;;;;8.60;2.85;;;12.40;99.90;;;;;;5056510;28;20135;-69
2022/06/30 09:55:06;;;;;;;5.95;2.60;;;12.20;99.90;;;;;;5049862;28;20444;-71
2022/06/30 09:57:39;;;;;;;6.18;2.63;;;12.20;99.90;;;;;;5054640;28;20025;-68
2022/06/30 10:00:11;;;;;;;7.00;2.58;;;12.00;99.90;;;;;;5057654;28;20534;-67
2022/06/30 10:02:39;;;;;;;;;;;12.00;99.90;;;;;;5056265;28;20118;-69
2022/06/30 10:05:08;;;;;;;7.25;2.80;;;12.00;99.90;;;;;;5055818;28;20374;-68
2022/06/30 10:07:37;;;;;;;6.00;3.00;;;12.00;99.90;;;;;;5057172;28;20602;-68
2022/06/30 10:10:06;;;;;;;9.40;3.65;;;11.90;99.90;;;;;;5056154;28;20036;-65
2022/06/30 10:12:34;;;;;;;10.02;3.47;;;11.90;99.90;;;;;;5054565;28;20098;-68
2022/06/30 10:15:03;;;;;;;10.30;2.90;;;12.00;99.90;;;;;;5052878;28;20377;-65
2022/06/30 10:17:35;;;;;;;10.75;3.15;;;12.00;99.90;;;;;;5049874;28;20024;-65
2022/06/30 10:20:03;;;;;;;8.85;3.65;;;12.10;99.90;;;;;;5050845;28;20025;-63
2022/06/30 10:22:31;;;;;;;11.68;3.22;;;12.20;99.90;;;;;;5049740;28;20151;-63
2022/06/30 10:24:59;;;;;;;13.25;3.80;;;12.30;99.90;;;;;;5047240;28;20033;-63
2022/06/30 10:27:27;;;;;;;8.80;3.13;;;12.20;99.90;;;;;;5049946;28;20056;-63
2022/06/30 10:30:05;;;;;;;8.43;2.53;;;12.20;99.90;;;;;;5054277;28;20408;-65
2022/06/30 10:32:59;;;;;;;12.10;3.08;;;12.30;99.90;;;;;;5055192;28;20051;-63
2022/06/30 10:35:29;;;;;;;6.78;2.38;;;12.40;99.90;;;;;;5056426;28;20020;-63
2022/06/30 10:37:59;;;;;;;3.88;2.22;;;12.40;99.90;;;;;;5055427;28;20041;-64
2022/06/30 10:40:52;;;;;;;6.85;2.60;;;12.40;99.90;;;;;;5039682;28;20606;-63
2022/06/30 10:43:19;;;;;;;5.30;2.65;;;12.30;99.90;;;;;;4982731;28;20133;-61
2022/06/30 10:46:04;;;;;;;10.27;2.63;;;12.40;99.90;;;;;;4981870;28;20061;-63
2022/06/30 10:48:53;;;;;;;6.78;2.17;;;12.40;99.90;;;;;;4983269;28;20133;-63
2022/06/30 10:51:21;;;;;;;9.98;2.40;;;12.30;99.90;;;;;;4966307;28;20034;-63
2022/06/30 10:53:59;;;;;;;4.95;2.60;;;12.30;99.90;;;;;;4983870;28;20056;-65
2022/06/30 10:56:53;;;;;;;4.88;1.90;;;12.30;99.90;;;;;;4983944;28;20116;-65
2022/06/30 10:59:49;;;;;;;6.00;2.47;;;12.20;99.90;;;;;;4981639;28;20464;-63
2022/06/30 11:02:25;;;;;;;6.40;2.03;;;12.30;99.90;;;;;;4909682;29;20044;-63
2022/06/30 11:05:25;;;;;;;4.03;1.83;;;12.30;99.90;;;;;;4909253;29;20028;-62
2022/06/30 11:07:52;;;;;;;3.83;2.28;;;12.30;99.90;;;;;;4906547;29;20080;-62
2022/06/30 11:10:20;;;;;;;6.78;2.50;;;12.30;99.90;;;;;;4909882;29;20052;-61
2022/06/30 11:12:47;;;;;;;4.22;1.98;;;12.20;99.90;;;;;;4910668;29;20039;-64
2022/06/30 11:15:15;;;;;;;4.85;2.17;;;12.30;99.90;;;;;;4910422;29;20503;-68
2022/06/30 11:17:42;;;;;;;3.47;2.33;;;12.20;99.90;;;;;;4906246;29;20448;-63
2022/06/30 11:20:14;;;;;;;7.15;2.10;;;12.20;99.90;;;;;;4922062;28;20045;-67
2022/06/30 11:22:43;;;;;;;7.22;2.00;;;12.20;99.90;;;;;;4947284;28;20046;-65
2022/06/30 11:28:07;;;;;;;4.88;1.90;;;12.20;99.90;;;;;;4946646;28;20343;-63
2022/06/30 11:30:34;;;;;;;;;;;12.10;99.90;;;;;;4950841;28;20389;-67
2022/06/30 11:33:03;;;;;;;2.92;1.80;;;12.00;99.90;;;;;;4950016;28;20285;-66
2022/06/30 11:35:31;;;;;;;4.28;1.80;;;12.10;99.90;;;;;;4949269;28;20028;-67
2022/06/30 11:37:58;;;;;;;3.35;2.20;;;12.10;99.90;;;;;;4962272;28;20041;-67
2022/06/30 11:40:25;;;;;;;3.80;2.50;;;12.10;99.90;;;;;;5012294;28;20025;-67
2022/06/30 11:42:54;;;;;;;4.30;2.22;;;12.10;99.90;;;;;;5012419;28;20037;-67
2022/06/30 11:45:23;;;;;;;4.07;2.50;;;12.00;99.90;;;;;;5011736;28;20258;-62
2022/06/30 11:48:03;;;;;;;3.90;2.78;;;12.10;99.90;;;;;;5012810;28;20353;-62
2022/06/30 11:50:30;;;;;;;3.50;2.70;;;12.10;99.90;;;;;;5012305;28;20021;-66
2022/06/30 11:53:00;;;;;;;9.02;2.80;;;12.10;99.90;;;;;;4995013;28;20142;-63
2022/06/30 11:55:29;;;;;;;8.27;3.60;;;12.10;99.90;;;;;;5012525;28;20025;-69
2022/06/30 11:57:57;;;;;;;5.70;3.92;;;12.00;99.90;;;;;;5009654;28;20541;-62
2022/06/30 12:00:28;;;;;;;5.85;4.22;;;12.10;99.90;;;;;;5011742;28;20079;-66
2022/06/30 12:02:55;;;;;;;7.07;4.07;;;12.20;99.90;;;;;;5009042;28;20071;-65
2022/06/30 12:05:27;;;;;;;5.20;4.00;;;12.10;99.90;;;;;;5011795;28;20041;-65
2022/06/30 12:07:55;;;;;;;10.77;4.18;;;12.10;99.90;;;;;;5011567;28;20033;-65
2022/06/30 12:10:24;;;;;;;6.95;3.80;;;12.00;99.90;;;;;;5011183;28;20025;-62
2022/06/30 12:12:52;;;;;;;8.48;4.55;;;12.10;99.90;;;;;;5010416;28;20026;-62
2022/06/30 12:15:19;;;;;;;6.72;4.40;;;12.10;99.90;;;;;;5010881;28;20029;-64
2022/06/30 12:17:52;;;;;;;7.13;5.05;;;12.00;99.90;;;;;;5012177;28;20658;-61
2022/06/30 12:20:20;;;;;;;6.13;3.35;;;12.00;99.90;;;;;;5014478;28;20342;-65
2022/06/30 12:22:50;;;;;;;4.97;3.53;;;12.00;99.90;;;;;;5013683;28;20029;-66
2022/06/30 12:25:18;;;;;;;3.97;2.80;;;12.00;99.90;;;;;;5011850;28;20041;-64
2022/06/30 12:27:53;;;;;;;4.95;2.70;;;12.00;99.90;;;;;;5014023;28;20338;-64
2022/06/30 12:30:24;;;;;;;4.55;2.53;;;12.00;99.90;;;;;;5032298;28;20048;-62
2022/06/30 12:33:00;;;;;;;7.85;2.83;;;12.00;99.90;;;;;;5053698;28;20029;-63
2022/06/30 12:35:33;;;;;;;4.57;2.65;;;11.90;99.90;;;;;;5054414;28;20169;-62
2022/06/30 12:38:15;;;;;;;7.53;3.28;;;11.90;99.90;;;;;;5054060;28;20040;-61
2022/06/30 12:40:42;;;;;;;4.28;3.20;;;11.90;99.90;;;;;;5053953;28;20047;-61
2022/06/30 12:43:10;;;;;;;4.65;2.90;;;11.80;99.90;;;;;;5053610;28;20056;-64
2022/06/30 12:45:43;;;;;;;4.85;3.10;;;11.90;99.90;;;;;;5053823;28;20024;-66
2022/06/30 12:48:12;;;;;;;4.72;2.80;;;11.90;99.90;;;;;;5053385;28;20021;-66
2022/06/30 12:50:41;;;;;;;4.75;2.80;;;12.00;99.90;;;;;;5053141;28;20099;-62
2022/06/30 12:53:23;;;;;;;4.50;2.40;;;12.00;99.90;;;;;;5052499;28;20035;-62
2022/06/30 12:56:08;;;;;;;5.82;3.25;;;12.00;99.90;;;;;;5053006;28;20024;-62
2022/06/30 12:59:00;;;;;;;7.47;5.20;;;12.00;99.90;;;;;;5051832;28;20576;-62
2022/06/30 13:01:29;;;;;;;5.57;4.40;;;12.00;99.90;;;;;;5053708;28;20021;-65
2022/06/30 13:03:58;;;;;;;8.25;5.05;;;12.00;99.90;;;;;;5033468;28;20040;-66
2022/06/30 13:06:27;;;;;;;6.88;5.03;;;11.90;99.90;;;;;;5054572;28;20044;-64
2022/06/30 13:08:55;;;;;;;7.53;5.60;;;11.90;99.90;;;;;;5052593;28;20033;-62
2022/06/30 13:11:27;;;;;;;5.97;5.03;;;11.90;99.90;;;;;;5054935;28;20592;-63
2022/06/30 13:13:59;;;;;;;6.57;5.50;;;11.90;99.90;;;;;;5055016;28;20037;-65